createdAt,value
2018-09-30T00:02:56.997Z,99343.88
2018-09-30T00:06:03.095Z,99341.16
2018-09-30T00:09:09.452Z,99335.58
2018-09-30T00:12:16.426Z,99332.53
2018-09-30T00:15:22.247Z,99331.91
2018-09-30T00:18:28.120Z,99317.24
2018-09-30T00:21:34.894Z,99311.47
2018-09-30T00:24:46.701Z,99315.83
2018-09-30T00:27:53.449Z,99322.17
2018-09-30T00:30:59.721Z,99317.29
2018-09-30T00:34:12.048Z,99316.08
2018-09-30T00:37:18.793Z,99316.09
2018-09-30T00:40:24.832Z,99317.37
2018-09-30T00:43:31.019Z,99317.56
2018-09-30T00:46:37.099Z,99311.78
2018-09-30T00:49:43.234Z,99313.80
2018-09-30T00:52:49.441Z,99307.45
2018-09-30T00:55:54.458Z,99302.76
2018-09-30T00:59:00.621Z,99300.80
2018-09-30T01:02:06.595Z,99294.96
2018-09-30T01:05:12.541Z,99301.68
2018-09-30T01:08:18.702Z,99294.88
2018-09-30T01:11:25.579Z,99288.08
2018-09-30T01:14:33.056Z,99291.33
2018-09-30T01:17:38.121Z,99290.48
2018-09-30T01:20:43.949Z,99280.14
2018-09-30T01:23:49.949Z,99281.59
2018-09-30T01:26:56.673Z,99285.09
2018-09-30T01:30:04.645Z,99294.86
2018-09-30T01:33:09.647Z,99288.61
2018-09-30T01:36:16.509Z,99288.23
2018-09-30T01:39:23.222Z,99298.38
2018-09-30T01:42:28.383Z,99293.63
2018-09-30T01:45:34.682Z,99292.93
2018-09-30T01:48:41.014Z,99291.70
2018-09-30T01:51:56.457Z,99294.39
2018-09-30T01:55:02.317Z,99291.52
2018-09-30T01:58:08.062Z,99293.24
2018-09-30T02:01:13.904Z,99289.06
2018-09-30T02:04:20.889Z,99287.76
2018-09-30T02:07:26.649Z,99290.14
2018-09-30T02:10:33.206Z,99281.45
2018-09-30T02:13:39.376Z,99274.27
2018-09-30T02:16:46.365Z,99272.29
2018-09-30T02:19:52.114Z,99270.84
2018-09-30T02:22:59.394Z,99267.00
2018-09-30T02:26:06.177Z,99268.63
2018-09-30T02:29:12.741Z,99258.57
2018-09-30T02:32:19.168Z,99254.95
2018-09-30T02:35:25.411Z,99251.83
2018-09-30T02:38:31.275Z,99251.67
2018-09-30T02:41:37.106Z,99245.90
2018-09-30T02:44:43.853Z,99247.73
2018-09-30T02:47:49.550Z,99237.77
2018-09-30T02:50:54.577Z,99232.70
2018-09-30T02:54:00.415Z,99230.39
2018-09-30T02:57:06.622Z,99223.16
2018-09-30T03:00:13.917Z,99224.06
2018-09-30T03:03:19.728Z,99219.17
2018-09-30T03:06:31.366Z,99216.49
2018-09-30T03:09:39.265Z,99211.80
2018-09-30T03:12:45.398Z,99207.84
2018-09-30T03:15:51.126Z,99213.44
2018-09-30T03:18:57.349Z,99222.30
2018-09-30T03:22:02.386Z,99219.77
2018-09-30T03:25:09.129Z,99208.77
2018-09-30T03:28:14.834Z,99210.41
2018-09-30T03:31:20.802Z,99202.81
2018-09-30T03:34:26.572Z,99204.48
2018-09-30T03:37:32.602Z,99197.80
2018-09-30T03:40:40.126Z,99196.36
2018-09-30T03:43:46.167Z,99196.73
2018-09-30T03:46:52.342Z,99200.52
2018-09-30T03:49:58.202Z,99191.66
2018-09-30T03:53:04.361Z,99192.21
2018-09-30T03:56:10.236Z,99185.87
2018-09-30T03:59:15.958Z,99180.30
2018-09-30T04:02:22.939Z,99181.74
2018-09-30T04:05:29.508Z,99176.86
2018-09-30T04:08:35.457Z,99175.80
2018-09-30T04:11:42.073Z,99169.84
2018-09-30T04:14:48.211Z,99173.45
2018-09-30T04:17:54.082Z,99164.94
2018-09-30T04:21:01.686Z,99159.72
2018-09-30T04:24:10.333Z,99158.83
2018-09-30T04:27:17.161Z,99166.77
2018-09-30T04:30:23.720Z,99161.52
2018-09-30T04:33:29.797Z,99166.42
2018-09-30T04:36:36.147Z,99165.36
2018-09-30T04:39:41.181Z,99169.14
2018-09-30T04:42:47.083Z,99167.47
2018-09-30T04:45:52.924Z,99176.91
2018-09-30T04:48:59.696Z,99164.78
2018-09-30T04:52:05.548Z,99159.91
2018-09-30T04:55:10.589Z,99155.92
2018-09-30T04:58:16.665Z,99154.16
2018-09-30T05:01:23.337Z,99158.14
2018-09-30T05:04:28.362Z,99150.70
2018-09-30T05:07:35.038Z,99147.80
2018-09-30T05:10:41.945Z,99142.70
2018-09-30T05:14:57.102Z,99146.75
2018-09-30T05:18:02.793Z,99134.27
2018-09-30T05:21:09.451Z,99127.73
2018-09-30T05:24:16.300Z,99137.33
2018-09-30T05:27:23.395Z,99145.30
2018-09-30T05:30:29.238Z,99137.86
2018-09-30T05:33:34.903Z,99144.90
2018-09-30T05:36:40.788Z,99142.73
2018-09-30T05:39:47.625Z,99133.70
2018-09-30T05:42:53.629Z,99129.16
2018-09-30T05:45:59.623Z,99127.34
2018-09-30T05:49:05.745Z,99134.41
2018-09-30T05:52:11.520Z,99141.45
2018-09-30T05:55:16.648Z,99132.77
2018-09-30T05:58:23.269Z,99138.55
2018-09-30T06:01:29.845Z,99140.15
2018-09-30T06:04:35.981Z,99141.42
2018-09-30T06:07:42.098Z,99132.70
2018-09-30T06:10:48.029Z,99137.77
2018-09-30T06:13:54.285Z,99138.48
2018-09-30T06:17:01.059Z,99143.33
2018-09-30T06:20:06.563Z,99136.84
2018-09-30T06:23:14.152Z,99146.75
2018-09-30T06:26:20.151Z,99151.25
2018-09-30T06:29:26.612Z,99142.16
2018-09-30T06:32:32.605Z,99137.80
2018-09-30T06:35:39.362Z,99138.46
2018-09-30T06:38:45.137Z,99132.78
2018-09-30T06:41:51.205Z,99136.90
2018-09-30T06:44:57.502Z,99141.17
2018-09-30T06:48:03.597Z,99144.92
2018-09-30T06:51:10.386Z,99147.53
2018-09-30T06:54:17.062Z,99139.48
2018-09-30T06:57:23.330Z,99139.16
2018-09-30T07:00:30.228Z,99129.14
2018-09-30T07:03:37.515Z,99129.46
2018-09-30T07:06:44.329Z,99131.28
2018-09-30T07:09:51.209Z,99127.85
2018-09-30T07:12:57.190Z,99126.56
2018-09-30T07:16:02.198Z,99124.00
2018-09-30T07:19:08.305Z,99121.77
2018-09-30T07:22:14.927Z,99114.20
2018-09-30T07:25:19.902Z,99111.96
2018-09-30T07:28:26.567Z,99104.84
2018-09-30T07:31:31.669Z,99108.60
2018-09-30T07:34:37.810Z,99094.45
2018-09-30T07:37:44.566Z,99082.62
2018-09-30T07:40:49.573Z,99085.22
2018-09-30T07:43:56.180Z,99081.88
2018-09-30T07:47:02.122Z,99066.06
2018-09-30T07:50:07.278Z,99057.19
2018-09-30T07:53:12.415Z,99050.84
2018-09-30T07:56:18.455Z,99044.59
2018-09-30T07:59:23.663Z,99046.04
2018-09-30T08:02:29.439Z,99033.89
2018-09-30T08:05:34.465Z,99038.24
2018-09-30T08:08:40.472Z,99035.20
2018-09-30T08:11:46.594Z,99029.91
2018-09-30T08:14:53.458Z,99026.87
2018-09-30T08:17:58.523Z,99016.73
2018-09-30T08:21:04.945Z,99013.66
2018-09-30T08:24:13.048Z,99009.42
2018-09-30T08:27:19.605Z,99010.87
2018-09-30T08:30:26.146Z,99012.53
2018-09-30T08:33:31.927Z,99011.61
2018-09-30T08:36:36.960Z,99004.86
2018-09-30T08:39:43.102Z,99005.84
2018-09-30T08:42:48.689Z,99012.59
2018-09-30T08:45:54.978Z,99004.61
2018-09-30T08:49:00.667Z,98998.70
2018-09-30T08:52:05.733Z,98998.69
2018-09-30T08:55:11.900Z,98995.37
2018-09-30T08:58:18.482Z,98993.96
2018-09-30T09:01:24.922Z,98997.22
2018-09-30T09:04:30.707Z,98997.83
2018-09-30T09:07:36.749Z,98989.17
2018-09-30T09:10:43.312Z,98989.16
2018-09-30T09:13:49.534Z,98986.43
2018-09-30T09:16:54.522Z,98979.42
2018-09-30T09:20:00.493Z,98978.45
2018-09-30T09:23:05.716Z,98966.02
2018-09-30T09:26:11.487Z,98967.20
2018-09-30T09:29:18.577Z,98959.91
2018-09-30T09:32:24.611Z,98956.27
2018-09-30T09:35:29.658Z,98961.86
2018-09-30T09:38:35.561Z,98962.42
2018-09-30T09:41:42.389Z,98958.02
2018-09-30T09:44:48.895Z,98953.70
2018-09-30T09:47:54.601Z,98952.51
2018-09-30T09:51:01.085Z,98954.75
2018-09-30T09:54:07.863Z,98954.72
2018-09-30T09:57:14.443Z,98940.39
2018-09-30T10:00:26.379Z,98941.72
2018-09-30T10:03:32.521Z,98940.09
2018-09-30T10:06:39.978Z,98932.23
2018-09-30T10:09:45.963Z,98935.19
2018-09-30T10:12:52.733Z,98927.83
2018-09-30T10:15:59.424Z,98914.97
2018-09-30T10:19:06.206Z,98903.37
2018-09-30T10:22:12.837Z,98908.42
2018-09-30T10:25:18.617Z,98901.78
2018-09-30T10:28:25.883Z,98906.98
2018-09-30T10:31:31.857Z,98906.17
2018-09-30T10:34:38.636Z,98889.03
2018-09-30T10:37:46.017Z,98888.33
2018-09-30T10:40:51.936Z,98878.41
2018-09-30T10:43:59.138Z,98871.07
2018-09-30T10:47:04.181Z,98862.19
2018-09-30T10:50:11.122Z,98855.34
2018-09-30T10:53:17.397Z,98855.55
2018-09-30T10:56:23.735Z,98845.56
2018-09-30T10:59:28.915Z,98845.13
2018-09-30T11:02:34.660Z,98834.81
2018-09-30T11:05:40.723Z,98836.61
2018-09-30T11:08:45.743Z,98831.12
2018-09-30T11:11:51.610Z,98822.72
2018-09-30T11:14:56.667Z,98822.49
2018-09-30T11:18:02.390Z,98821.95
2018-09-30T11:21:08.764Z,98818.19
2018-09-30T11:24:14.531Z,98811.49
2018-09-30T11:27:19.619Z,98802.06
2018-09-30T11:30:30.316Z,98796.98
2018-09-30T11:33:39.420Z,98790.27
2018-09-30T11:36:58.003Z,98783.16
2018-09-30T11:40:08.179Z,98780.55
2018-09-30T11:43:17.984Z,98774.11
2018-09-30T11:46:34.860Z,98759.56
2018-09-30T11:49:47.045Z,98762.30
2018-09-30T11:53:05.971Z,98763.26
2018-09-30T11:56:21.525Z,98757.98
2018-09-30T11:59:31.884Z,98756.58
2018-09-30T12:02:40.495Z,98754.59
2018-09-30T12:05:54.638Z,98752.58
2018-09-30T12:09:04.842Z,98743.75
2018-09-30T12:15:04.743Z,98732.67
2018-09-30T12:18:13.222Z,98718.23
2018-09-30T12:21:24.059Z,98708.59
2018-09-30T12:24:43.121Z,98699.41
2018-09-30T12:27:58.292Z,98706.45
2018-09-30T12:31:08.849Z,98702.80
2018-09-30T12:34:18.897Z,98691.77
2018-09-30T12:37:30.614Z,98688.38
2018-09-30T12:40:38.126Z,98682.63
2018-09-30T12:43:54.244Z,98684.73
2018-09-30T12:47:04.663Z,98686.55
2018-09-30T12:50:21.142Z,98679.41
2018-09-30T12:53:29.771Z,98676.80
2018-09-30T12:56:37.566Z,98672.94
2018-09-30T12:59:48.021Z,98669.47
2018-09-30T13:03:01.168Z,98669.91
2018-09-30T13:06:11.618Z,98669.47
2018-09-30T13:09:24.058Z,98665.48
2018-09-30T13:12:34.738Z,98658.69
2018-09-30T13:15:43.621Z,98651.20
2018-09-30T13:18:53.138Z,98651.44
2018-09-30T13:22:07.404Z,98656.84
2018-09-30T13:25:19.055Z,98655.12
2018-09-30T13:28:31.687Z,98650.98
2018-09-30T13:31:43.337Z,98641.52
2018-09-30T13:34:57.403Z,98636.39
2018-09-30T13:38:09.645Z,98641.41
2018-09-30T13:41:22.995Z,98638.47
2018-09-30T13:44:34.483Z,98636.72
2018-09-30T13:47:48.117Z,98630.50
2018-09-30T13:50:57.122Z,98633.52
2018-09-30T13:54:10.498Z,98633.68
2018-09-30T13:57:24.395Z,98631.89
2018-09-30T14:00:33.677Z,98634.70
2018-09-30T14:03:46.380Z,98623.59
2018-09-30T14:06:59.326Z,98624.94
2018-09-30T14:10:13.175Z,98619.16
2018-09-30T14:13:24.283Z,98609.33
2018-09-30T14:16:37.638Z,98606.80
2018-09-30T14:19:49.317Z,98599.33
2018-09-30T14:22:56.899Z,98595.02
2018-09-30T14:26:11.994Z,98588.25
2018-09-30T14:29:20.106Z,98593.42
2018-09-30T14:32:32.816Z,98595.45
2018-09-30T14:35:48.163Z,98586.38
2018-09-30T14:38:58.583Z,98588.85
2018-09-30T14:42:10.194Z,98585.66
2018-09-30T14:45:19.847Z,98580.00
2018-09-30T14:48:30.054Z,98574.56
2018-09-30T14:51:38.543Z,98569.88
2018-09-30T14:54:50.497Z,98569.95
2018-09-30T14:57:59.148Z,98567.63
2018-09-30T15:01:11.783Z,98566.14
2018-09-30T15:04:23.882Z,98560.73
2018-09-30T15:07:33.031Z,98559.33
2018-09-30T15:10:55.715Z,98559.72
2018-09-30T15:14:04.558Z,98559.16
2018-09-30T15:17:13.766Z,98561.77
2018-09-30T15:20:26.945Z,98551.91
2018-09-30T15:23:38.506Z,98553.48
2018-09-30T15:26:53.529Z,98555.57
2018-09-30T15:30:08.367Z,98546.84
2018-09-30T15:33:17.516Z,98546.45
2018-09-30T15:36:31.368Z,98535.50
2018-09-30T15:39:47.168Z,98533.33
2018-09-30T15:43:02.538Z,98535.36
2018-09-30T15:46:18.028Z,98535.19
2018-09-30T15:49:27.775Z,98527.47
2018-09-30T15:52:39.196Z,98532.16
2018-09-30T15:55:50.330Z,98530.23
2018-09-30T15:59:01.138Z,98529.68
2018-09-30T16:02:07.836Z,98527.20
2018-09-30T16:05:14.068Z,98530.31
2018-09-30T16:08:19.108Z,98525.11
2018-09-30T16:11:24.184Z,98530.64
2018-09-30T16:14:31.560Z,98537.32
2018-09-30T16:17:37.801Z,98537.06
2018-09-30T16:20:42.989Z,98531.13
2018-09-30T16:23:49.704Z,98531.19
2018-09-30T16:26:55.833Z,98539.33
2018-09-30T16:30:03.549Z,98541.75
2018-09-30T16:33:09.926Z,98545.80
2018-09-30T16:36:16.077Z,98542.41
2018-09-30T16:39:21.879Z,98540.20
2018-09-30T16:42:27.942Z,98535.80
2018-09-30T16:45:33.038Z,98538.13
2018-09-30T16:48:38.860Z,98540.89
2018-09-30T16:51:44.989Z,98537.70
2018-09-30T16:54:51.444Z,98540.13
2018-09-30T16:57:56.894Z,98544.65
2018-09-30T17:01:02.040Z,98553.73
2018-09-30T17:04:07.917Z,98557.67
2018-09-30T17:07:13.701Z,98560.92
2018-09-30T17:10:20.577Z,98557.92
2018-09-30T17:13:25.706Z,98560.88
2018-09-30T17:16:31.519Z,98568.19
2018-09-30T17:19:37.227Z,98564.58
2018-09-30T17:22:42.766Z,98564.58
2018-09-30T17:25:48.650Z,98566.52
2018-09-30T17:28:53.687Z,98566.60
2018-09-30T17:31:59.544Z,98564.57
2018-09-30T17:35:05.673Z,98568.13
2018-09-30T17:38:13.585Z,98561.83
2018-09-30T17:42:49.276Z,98558.84
2018-09-30T17:45:55.893Z,98561.20
2018-09-30T17:49:01.869Z,98551.64
2018-09-30T17:52:07.795Z,98547.44
2018-09-30T17:55:14.192Z,98547.44
2018-09-30T17:58:21.251Z,98554.07
2018-09-30T18:01:32.855Z,98550.17
2018-09-30T18:04:39.768Z,98552.37
2018-09-30T18:07:45.694Z,98553.58
2018-09-30T18:10:50.779Z,98554.88
2018-09-30T18:13:56.366Z,98558.66
2018-09-30T18:17:01.816Z,98562.48
2018-09-30T18:20:07.302Z,98564.41
2018-09-30T18:23:12.455Z,98565.03
2018-09-30T18:26:17.590Z,98562.55
2018-09-30T18:29:23.663Z,98558.89
2018-09-30T18:32:28.899Z,98558.26
2018-09-30T18:35:42.596Z,98555.65
2018-09-30T18:38:52.035Z,98558.70
2018-09-30T18:42:01.830Z,98560.47
2018-09-30T18:45:10.356Z,98577.80
2018-09-30T18:48:18.154Z,98580.27
2018-09-30T18:51:27.876Z,98574.86
2018-09-30T18:54:38.137Z,98570.53
2018-09-30T18:57:47.982Z,98573.03
2018-09-30T19:00:57.648Z,98568.34
2018-09-30T19:04:12.667Z,98566.88
2018-09-30T19:07:32.994Z,98566.17
2018-09-30T19:10:39.147Z,98572.22
2018-09-30T19:13:45.353Z,98577.13
2018-09-30T19:16:50.627Z,98574.17
2018-09-30T19:19:56.605Z,98568.34
2018-09-30T19:23:04.173Z,98571.89
2018-09-30T19:26:10.144Z,98574.39
2018-09-30T19:29:22.536Z,98574.50
2018-09-30T19:32:27.616Z,98572.19
2018-09-30T19:35:34.478Z,98563.60
2018-09-30T19:38:39.551Z,98569.84
2018-09-30T19:41:44.703Z,98572.96
2018-09-30T19:44:50.417Z,98570.03
2018-09-30T19:47:55.604Z,98575.23
2018-09-30T19:51:02.040Z,98574.34
2018-09-30T19:54:07.314Z,98579.03
2018-09-30T19:57:12.859Z,98572.19
2018-09-30T20:00:17.933Z,98574.28
2018-09-30T20:03:24.448Z,98572.62
2018-09-30T20:06:30.179Z,98568.00
2018-09-30T20:09:35.621Z,98572.28
2018-09-30T20:12:42.751Z,98575.34
2018-09-30T20:15:50.082Z,98571.19
2018-09-30T20:18:56.226Z,98581.31
2018-09-30T20:22:02.390Z,98578.55
2018-09-30T20:25:07.493Z,98578.73
2018-09-30T20:28:13.802Z,98584.40
2018-09-30T20:31:21.677Z,98584.70
2018-09-30T20:34:29.789Z,98579.33
2018-09-30T20:37:35.064Z,98579.36
2018-09-30T20:40:41.636Z,98580.55
2018-09-30T20:43:47.520Z,98577.48
2018-09-30T20:46:53.479Z,98580.46
2018-09-30T20:49:59.593Z,98579.76
2018-09-30T20:53:06.895Z,98589.16
2018-09-30T20:56:13.954Z,98598.56
2018-09-30T20:59:24.465Z,98598.05
2018-09-30T21:02:31.449Z,98592.52
2018-09-30T21:05:59.567Z,98601.09
2018-09-30T21:09:08.633Z,98603.86
2018-09-30T21:14:57.245Z,98603.05
2018-09-30T21:18:02.281Z,98602.65
2018-09-30T21:21:07.331Z,98606.08
2018-09-30T21:24:12.549Z,98606.36
2018-09-30T21:27:17.735Z,98605.05
2018-09-30T21:30:22.780Z,98605.81
2018-09-30T21:33:28.130Z,98601.11
2018-09-30T21:36:33.159Z,98602.72
2018-09-30T21:39:38.187Z,98601.75
2018-09-30T21:42:43.203Z,98600.30
2018-09-30T21:45:48.278Z,98596.92
2018-09-30T21:48:54.301Z,98594.58
2018-09-30T21:52:06.069Z,98597.22
2018-09-30T21:55:11.132Z,98598.24
2018-09-30T21:58:16.108Z,98603.14
2018-09-30T22:04:29.158Z,98610.23
2018-09-30T22:07:34.171Z,98610.53
2018-09-30T22:10:40.431Z,98613.03
2018-09-30T22:13:45.476Z,98611.34
2018-09-30T22:16:50.497Z,98607.42
2018-09-30T22:19:55.524Z,98612.38
2018-09-30T22:23:01.297Z,98616.42
2018-09-30T22:26:07.846Z,98616.66
2018-09-30T22:29:12.883Z,98609.56
2018-09-30T22:32:18.738Z,98617.08
2018-09-30T22:35:23.751Z,98608.11
2018-09-30T22:38:28.944Z,98613.45
2018-09-30T22:41:36.268Z,98622.32
2018-09-30T22:44:41.327Z,98620.42
2018-09-30T22:47:46.400Z,98615.87
2018-09-30T22:50:51.404Z,98620.66
2018-09-30T22:53:56.534Z,98613.70
2018-09-30T22:57:02.307Z,98613.36
2018-09-30T23:00:08.308Z,98618.25
2018-09-30T23:03:13.356Z,98615.09
2018-09-30T23:06:18.389Z,98616.00
2018-09-30T23:09:23.457Z,98613.73
2018-09-30T23:12:29.433Z,98611.81
2018-09-30T23:15:34.489Z,98613.48
2018-09-30T23:18:39.768Z,98619.63
2018-09-30T23:21:44.797Z,98614.75
2018-09-30T23:24:50.065Z,98606.37
2018-09-30T23:27:55.111Z,98601.39
2018-09-30T23:31:00.154Z,98604.32
2018-09-30T23:34:05.452Z,98601.78
2018-09-30T23:37:11.683Z,98603.33
2018-09-30T23:40:16.746Z,98601.03
2018-09-30T23:43:21.801Z,98601.16
2018-09-30T23:46:27.490Z,98593.89
2018-09-30T23:49:32.578Z,98600.52
2018-09-30T23:52:37.605Z,98602.33
2018-09-30T23:55:42.632Z,98600.28
2018-09-30T23:58:47.660Z,98594.11
